Terminal Aerodrome Forecast
Issued by NWS Louisville, KY

Home | Current Version | Previous Version | Text Only | Print | Product List | Glossary On
Versions: 1 2 3 4 5 6 7 8 9 10 11 12 13 14 15 16 17 18
057
FTUS43 KLMK 241723
TAFSDF
TAF
KSDF 241723Z 2418/2524 29008KT P6SM SCT035 BKN250
     FM250000 35004KT P6SM FEW250
     FM251300 05005KT P6SM FEW250=

USA.gov is the U.S. government's official web portal to all federal, state and local government web resources and services.